Time;durP1;ratioP1;P1;durP2;ratioP2;P2;SDS_P1;SDS_P2;PMS_P1;PMS_P2;Temp;Humidity;BMP_temperature;BMP_pressure;BME280_temperature;BME280_humidity;BME280_pressure;Samples;Min_cycle;Max_cycle;Signal;HPM_P1;HPM_P2
2023/10/22 00:00:52;;;;;;;12.77;7.03;;;13.40;99.90;;;;;;5053142;28;20433;-79
2023/10/22 00:03:17;;;;;;;12.18;8.07;;;13.40;99.90;;;;;;5053207;28;20497;-85
2023/10/22 00:05:43;;;;;;;9.93;6.13;;;13.40;99.90;;;;;;5054409;28;20386;-79
2023/10/22 00:08:08;;;;;;;7.75;5.07;;;13.40;99.90;;;;;;5052982;28;20124;-79
2023/10/22 00:10:34;;;;;;;11.52;5.63;;;13.30;99.90;;;;;;5069233;28;20021;-84
2023/10/22 00:13:00;;;;;;;10.38;5.28;;;13.30;99.90;;;;;;5054274;28;20429;-85
2023/10/22 00:15:25;;;;;;;7.47;5.15;;;13.30;99.90;;;;;;5052752;28;20029;-84
2023/10/22 00:17:52;;;;;;;8.40;6.20;;;13.30;99.90;;;;;;5054344;28;20108;-84
2023/10/22 00:20:17;;;;;;;9.90;6.40;;;13.30;99.90;;;;;;5052663;28;20044;-79
2023/10/22 00:22:43;;;;;;;10.05;7.78;;;13.20;99.90;;;;;;5052892;28;20013;-84
2023/10/22 00:25:09;;;;;;;12.23;7.72;;;13.20;99.90;;;;;;5068864;28;20024;-79
2023/10/22 00:27:34;;;;;;;11.18;5.97;;;13.20;99.90;;;;;;5052733;28;20108;-80
2023/10/22 00:30:00;;;;;;;9.35;5.88;;;13.10;99.90;;;;;;5053765;28;20021;-79
2023/10/22 00:32:27;;;;;;;7.55;4.68;;;13.10;99.90;;;;;;5052654;28;20021;-84
2023/10/22 00:34:53;;;;;;;10.93;5.18;;;13.00;99.90;;;;;;5053982;28;20517;-80
2023/10/22 00:37:19;;;;;;;8.82;5.30;;;13.00;99.90;;;;;;5052435;28;20017;-84
2023/10/22 00:39:44;;;;;;;9.48;5.03;;;12.90;99.90;;;;;;5067025;28;20497;-79
2023/10/22 00:42:10;;;;;;;9.77;5.95;;;12.80;99.90;;;;;;5052262;28;20025;-85
2023/10/22 00:44:36;;;;;;;8.65;4.95;;;12.80;99.90;;;;;;5053618;28;20013;-79
2023/10/22 00:47:03;;;;;;;10.82;5.32;;;12.80;99.90;;;;;;5052336;28;20041;-79
2023/10/22 00:49:29;;;;;;;8.02;5.40;;;12.70;99.90;;;;;;5051927;28;20509;-79
2023/10/22 00:51:56;;;;;;;7.47;4.95;;;12.70;99.90;;;;;;5051495;28;20021;-79
2023/10/22 00:54:24;;;;;;;6.55;4.40;;;12.70;99.90;;;;;;5051939;28;20021;-79
2023/10/22 00:56:51;;;;;;;8.45;4.63;;;12.70;99.90;;;;;;5053614;28;20013;-84
2023/10/22 00:59:16;;;;;;;6.85;4.32;;;12.70;99.90;;;;;;5051669;28;20106;-84
2023/10/22 01:01:42;;;;;;;6.57;4.68;;;12.70;99.90;;;;;;5052288;28;20048;-79
2023/10/22 01:04:08;;;;;;;7.60;4.47;;;12.70;99.90;;;;;;5052832;28;20086;-79
2023/10/22 01:06:36;;;;;;;10.05;4.68;;;12.70;99.90;;;;;;5053429;28;20526;-84
2023/10/22 01:09:02;;;;;;;7.07;4.60;;;12.70;99.90;;;;;;5052838;28;20042;-84
2023/10/22 01:11:27;;;;;;;8.18;5.10;;;12.70;99.90;;;;;;5051993;28;20538;-80
2023/10/22 01:13:53;;;;;;;6.45;3.55;;;12.70;99.90;;;;;;5050707;28;20035;-79
2023/10/22 01:16:19;;;;;;;7.13;4.03;;;12.70;99.90;;;;;;5051392;28;20031;-79
2023/10/22 01:18:44;;;;;;;6.50;3.95;;;12.70;99.90;;;;;;5051564;28;20051;-84
2023/10/22 01:21:11;;;;;;;7.30;4.55;;;12.70;99.90;;;;;;5052734;28;20071;-84
2023/10/22 01:23:37;;;;;;;8.15;4.32;;;12.70;99.90;;;;;;5051620;28;20025;-84
2023/10/22 01:26:06;;;;;;;6.85;4.95;;;12.70;99.90;;;;;;5051415;28;20070;-84
2023/10/22 01:28:35;;;;;;;7.07;5.20;;;12.70;99.90;;;;;;5052771;28;20060;-84
2023/10/22 01:31:01;;;;;;;5.72;5.10;;;12.70;99.90;;;;;;5039174;28;20017;-85
2023/10/22 01:33:27;;;;;;;8.68;6.43;;;12.80;99.90;;;;;;5051440;28;20039;-79
2023/10/22 01:35:53;;;;;;;9.13;5.53;;;12.80;99.90;;;;;;5051281;28;20021;-84
2023/10/22 01:38:18;;;;;;;8.70;5.70;;;12.80;99.90;;;;;;5052814;28;20021;-84
2023/10/22 01:40:44;;;;;;;5.70;4.78;;;12.80;99.90;;;;;;5051375;28;20025;-85
2023/10/22 01:43:10;;;;;;;9.43;4.43;;;12.80;99.90;;;;;;5051448;28;20021;-79
2023/10/22 01:45:35;;;;;;;7.13;4.80;;;12.80;99.90;;;;;;5051407;28;20053;-79
2023/10/22 01:48:01;;;;;;;5.38;3.67;;;12.80;99.90;;;;;;5062410;28;20068;-84
2023/10/22 01:50:27;;;;;;;6.15;4.28;;;12.70;99.90;;;;;;5052513;28;20032;-79
2023/10/22 01:52:53;;;;;;;7.95;3.40;;;12.80;99.90;;;;;;5039067;28;20525;-79
2023/10/22 01:55:19;;;;;;;6.78;3.60;;;12.70;99.90;;;;;;5051427;28;20025;-79
2023/10/22 01:57:44;;;;;;;5.55;3.50;;;12.70;99.90;;;;;;5052220;28;20592;-84
2023/10/22 02:00:11;;;;;;;6.78;5.03;;;12.70;99.90;;;;;;5052596;28;20028;-79
2023/10/22 02:02:38;;;;;;;8.60;6.43;;;12.70;99.90;;;;;;5054281;28;20020;-84
2023/10/22 02:05:04;;;;;;;8.30;6.30;;;12.70;99.90;;;;;;5057960;28;20021;-80
2023/10/22 02:07:30;;;;;;;19.00;14.38;;;12.70;99.90;;;;;;5057131;28;20539;-79
2023/10/22 02:09:56;;;;;;;14.52;11.25;;;12.60;99.90;;;;;;5057832;28;20057;-84
2023/10/22 02:12:29;;;;;;;8.95;6.28;;;12.60;99.90;;;;;;5058664;28;20107;-79
2023/10/22 02:14:55;;;;;;;6.57;5.15;;;12.60;99.90;;;;;;5041246;28;20036;-85
2023/10/22 02:17:21;;;;;;;5.20;4.00;;;12.50;99.90;;;;;;5058749;28;20108;-79
2023/10/22 02:19:46;;;;;;;6.82;4.60;;;12.50;99.90;;;;;;5059075;28;20104;-84
2023/10/22 02:22:12;;;;;;;6.32;3.92;;;12.50;99.90;;;;;;5057254;28;20364;-84
2023/10/22 02:24:39;;;;;;;3.80;3.40;;;12.50;99.90;;;;;;5057728;28;20052;-84
2023/10/22 02:27:05;;;;;;;5.07;3.55;;;12.50;99.90;;;;;;5053836;28;20049;-79
2023/10/22 02:29:31;;;;;;;5.30;4.68;;;12.50;99.90;;;;;;5046513;28;20467;-79
2023/10/22 02:31:57;;;;;;;6.60;4.68;;;12.50;99.90;;;;;;5057341;28;20029;-84
2023/10/22 02:34:22;;;;;;;6.70;4.70;;;12.50;99.90;;;;;;5057546;28;20049;-79
2023/10/22 02:36:48;;;;;;;5.30;4.65;;;12.50;99.90;;;;;;5057601;28;20051;-79
2023/10/22 02:39:14;;;;;;;6.00;3.72;;;12.50;99.90;;;;;;5059013;28;20013;-84
2023/10/22 02:41:40;;;;;;;4.70;3.50;;;12.50;99.90;;;;;;5058750;28;20386;-79
2023/10/22 02:44:05;;;;;;;7.15;3.78;;;12.50;99.90;;;;;;5057509;28;20032;-79
2023/10/22 02:46:31;;;;;;;5.30;3.25;;;12.50;99.90;;;;;;5058621;28;20447;-79
2023/10/22 02:48:58;;;;;;;5.65;3.38;;;12.50;99.90;;;;;;5057197;28;20110;-85
2023/10/22 02:51:24;;;;;;;4.35;2.85;;;12.50;99.90;;;;;;5055940;28;20021;-79
2023/10/22 02:53:50;;;;;;;5.80;3.33;;;12.50;99.90;;;;;;5057310;28;20025;-85
2023/10/22 02:56:16;;;;;;;5.15;2.85;;;12.50;99.90;;;;;;5058251;28;20017;-85
2023/10/22 02:58:41;;;;;;;5.93;3.75;;;12.50;99.90;;;;;;5057391;28;20463;-84
2023/10/22 03:01:09;;;;;;;8.07;4.10;;;12.50;99.90;;;;;;5058971;28;20072;-79
2023/10/22 03:03:39;;;;;;;5.25;2.78;;;12.50;99.90;;;;;;5057232;28;20107;-84
2023/10/22 03:06:09;;;;;;;4.35;3.17;;;12.50;99.90;;;;;;5046118;28;20062;-85
2023/10/22 03:08:40;;;;;;;6.45;3.05;;;12.50;99.90;;;;;;5058287;28;20029;-79
2023/10/22 03:11:13;;;;;;;2.85;2.50;;;12.50;99.90;;;;;;5057455;28;20036;-79
2023/10/22 03:13:38;;;;;;;5.20;3.13;;;12.50;99.90;;;;;;5071465;28;20083;-79
2023/10/22 03:16:11;;;;;;;5.97;2.95;;;12.50;99.90;;;;;;5054254;28;20013;-84
2023/10/22 03:18:37;;;;;;;3.25;2.85;;;12.50;99.90;;;;;;5054039;28;20029;-79
2023/10/22 03:21:12;;;;;;;3.38;2.72;;;12.50;99.90;;;;;;5055354;28;20025;-79
2023/10/22 03:23:41;;;;;;;6.80;3.22;;;12.50;99.90;;;;;;5053976;28;20021;-79
2023/10/22 03:26:13;;;;;;;3.00;2.40;;;12.50;99.90;;;;;;5055178;28;20013;-84
2023/10/22 03:28:39;;;;;;;2.95;2.60;;;12.50;99.90;;;;;;5054989;28;20120;-85
2023/10/22 03:31:05;;;;;;;3.72;2.92;;;12.40;99.90;;;;;;5055311;28;20025;-79
2023/10/22 03:33:31;;;;;;;5.75;2.50;;;12.40;99.90;;;;;;5053485;28;20600;-84
2023/10/22 03:35:58;;;;;;;3.65;2.75;;;12.40;99.90;;;;;;5053895;28;20475;-84
2023/10/22 03:38:24;;;;;;;3.03;2.72;;;12.40;99.90;;;;;;5054651;28;20382;-79
2023/10/22 03:40:59;;;;;;;3.58;2.33;;;12.40;99.90;;;;;;5053776;28;20466;-85
2023/10/22 03:43:28;;;;;;;5.70;3.15;;;12.30;99.90;;;;;;5054731;28;20013;-79
2023/10/22 03:45:57;;;;;;;4.13;3.38;;;12.30;99.90;;;;;;5055012;28;20385;-84
2023/10/22 03:48:24;;;;;;;4.07;3.40;;;12.30;99.90;;;;;;5054544;28;20055;-79
2023/10/22 03:50:50;;;;;;;4.43;3.05;;;12.30;99.90;;;;;;5053526;28;20024;-79
2023/10/22 03:53:16;;;;;;;3.92;3.28;;;12.30;99.90;;;;;;5054534;28;20026;-79
2023/10/22 03:55:42;;;;;;;6.75;4.40;;;12.30;99.90;;;;;;5053587;28;20021;-79
2023/10/22 03:58:08;;;;;;;6.63;4.38;;;12.30;99.90;;;;;;5052963;28;20032;-79
2023/10/22 04:00:33;;;;;;;4.68;3.78;;;12.30;99.90;;;;;;5053535;28;20021;-84
2023/10/22 04:03:00;;;;;;;5.40;3.70;;;12.30;99.90;;;;;;5054376;28;20028;-84
2023/10/22 04:05:25;;;;;;;5.93;4.57;;;12.20;99.90;;;;;;5053004;28;20474;-84
2023/10/22 04:07:51;;;;;;;6.25;4.75;;;12.20;99.90;;;;;;5054254;28;20071;-84
2023/10/22 04:10:17;;;;;;;6.10;4.45;;;12.20;99.90;;;;;;5054345;28;20025;-79
2023/10/22 04:12:43;;;;;;;4.50;4.10;;;12.20;99.90;;;;;;5052901;28;20435;-84
2023/10/22 04:15:09;;;;;;;4.38;3.97;;;12.20;99.90;;;;;;5054327;28;20474;-79
2023/10/22 04:17:35;;;;;;;4.53;3.80;;;12.20;99.90;;;;;;5052771;28;20387;-84
2023/10/22 04:20:01;;;;;;;4.05;3.65;;;12.20;99.90;;;;;;5053048;28;20021;-84
2023/10/22 04:22:26;;;;;;;5.00;3.53;;;12.20;99.90;;;;;;5052414;28;20017;-79
2023/10/22 04:24:52;;;;;;;5.65;3.90;;;12.20;99.90;;;;;;5053901;28;20414;-79
2023/10/22 04:27:18;;;;;;;5.50;4.28;;;12.20;99.90;;;;;;5052658;28;20021;-84
2023/10/22 04:29:46;;;;;;;6.85;5.07;;;12.20;99.90;;;;;;5042009;28;20083;-84
2023/10/22 04:32:13;;;;;;;6.03;4.40;;;12.10;99.90;;;;;;5052876;28;20025;-79
2023/10/22 04:34:39;;;;;;;8.77;5.57;;;12.10;99.90;;;;;;5052778;28;20025;-80
2023/10/22 04:37:06;;;;;;;6.80;5.70;;;12.10;99.90;;;;;;5066145;28;20035;-79
2023/10/22 04:39:32;;;;;;;9.13;5.47;;;12.10;99.90;;;;;;5052370;28;20043;-79
2023/10/22 04:41:58;;;;;;;7.00;4.63;;;12.10;99.90;;;;;;5053713;28;20055;-85
2023/10/22 04:44:23;;;;;;;9.18;5.90;;;12.10;99.90;;;;;;5053736;28;20417;-85
2023/10/22 04:46:51;;;;;;;8.50;5.75;;;12.10;99.90;;;;;;5053222;28;20017;-79
2023/10/22 04:49:17;;;;;;;7.50;5.68;;;12.10;99.90;;;;;;5052277;28;20029;-85
2023/10/22 04:51:43;;;;;;;6.47;5.15;;;12.10;99.90;;;;;;5053529;28;20013;-85
2023/10/22 04:54:09;;;;;;;5.90;4.47;;;12.10;99.90;;;;;;5053350;28;20021;-84
2023/10/22 04:56:35;;;;;;;6.53;4.88;;;12.10;99.90;;;;;;5053600;28;20013;-85
2023/10/22 04:59:00;;;;;;;5.47;4.95;;;12.10;99.90;;;;;;5051998;28;20031;-79
2023/10/22 05:01:26;;;;;;;7.65;5.05;;;12.10;99.90;;;;;;5052227;28;20017;-85
2023/10/22 05:03:52;;;;;;;9.43;6.65;;;12.00;99.90;;;;;;5051815;28;20028;-84
2023/10/22 05:06:18;;;;;;;11.75;8.35;;;12.00;99.90;;;;;;5053447;28;20033;-79
2023/10/22 05:08:44;;;;;;;12.00;8.05;;;12.00;99.90;;;;;;5038535;28;20030;-84
2023/10/22 05:11:14;;;;;;;13.20;7.88;;;12.00;99.90;;;;;;5053288;28;20021;-79
2023/10/22 05:13:39;;;;;;;16.52;10.48;;;12.10;99.90;;;;;;5051435;28;20057;-84
2023/10/22 05:16:07;;;;;;;10.20;6.10;;;12.10;99.90;;;;;;5051939;28;20051;-79
2023/10/22 05:18:32;;;;;;;8.65;6.32;;;12.00;99.90;;;;;;5051643;28;20106;-84
2023/10/22 05:21:04;;;;;;;7.82;5.72;;;12.00;99.90;;;;;;5052969;28;20017;-83
2023/10/22 05:23:30;;;;;;;8.50;6.70;;;12.00;99.90;;;;;;5051121;28;20043;-78
2023/10/22 05:26:11;;;;;;;6.43;5.03;;;12.00;99.90;;;;;;5053038;28;20761;-84
2023/10/22 05:28:37;;;;;;;7.32;6.47;;;12.10;99.90;;;;;;5051410;28;20056;-79
2023/10/22 05:31:15;;;;;;;11.02;6.50;;;12.00;99.90;;;;;;5051714;28;20079;-79
2023/10/22 05:33:42;;;;;;;7.72;5.82;;;12.10;99.90;;;;;;5051434;28;20024;-79
2023/10/22 05:36:19;;;;;;;8.75;6.68;;;12.10;99.90;;;;;;5052883;28;20188;-79
2023/10/22 05:38:45;;;;;;;10.25;6.45;;;12.10;99.90;;;;;;5050927;28;20024;-79
2023/10/22 05:41:21;;;;;;;8.40;6.97;;;12.10;99.90;;;;;;5051554;28;20029;-84
2023/10/22 05:43:51;;;;;;;8.80;6.28;;;12.10;99.90;;;;;;5052665;28;20020;-79
2023/10/22 05:46:16;;;;;;;10.70;6.93;;;12.10;99.90;;;;;;5051352;28;20025;-84
2023/10/22 05:48:42;;;;;;;8.05;5.90;;;12.10;99.90;;;;;;5040833;28;20502;-84
2023/10/22 05:51:08;;;;;;;6.85;4.97;;;12.10;99.90;;;;;;5061647;28;20028;-85
2023/10/22 05:53:33;;;;;;;6.68;5.10;;;12.10;99.90;;;;;;5052097;28;20044;-84
2023/10/22 05:55:59;;;;;;;5.18;4.57;;;12.10;99.90;;;;;;5044029;28;20037;-84
2023/10/22 05:58:25;;;;;;;7.68;4.95;;;12.10;99.90;;;;;;5049323;28;20055;-79
2023/10/22 06:00:52;;;;;;;6.22;4.75;;;12.20;99.90;;;;;;5046070;28;20486;-84
2023/10/22 06:03:18;;;;;;;8.43;4.55;;;12.10;99.90;;;;;;5052218;28;20103;-84
2023/10/22 06:05:44;;;;;;;4.82;4.32;;;12.20;99.90;;;;;;5037303;28;20519;-84
2023/10/22 06:08:10;;;;;;;11.52;7.03;;;12.30;99.90;;;;;;5047365;28;20060;-84
2023/10/22 06:10:43;;;;;;;13.40;8.18;;;12.20;99.90;;;;;;5045961;28;20482;-84
2023/10/22 06:13:09;;;;;;;7.78;4.72;;;12.30;99.90;;;;;;5052141;28;20112;-84
2023/10/22 06:15:39;;;;;;;9.75;4.85;;;12.30;99.90;;;;;;5050712;28;20120;-84
2023/10/22 06:18:09;;;;;;;5.43;4.30;;;12.30;99.90;;;;;;5051448;28;20037;-79
2023/10/22 06:20:35;;;;;;;7.20;5.85;;;12.30;99.90;;;;;;5050379;28;20032;-78
2023/10/22 06:23:02;;;;;;;7.35;6.07;;;12.40;99.90;;;;;;5047381;28;20059;-79
2023/10/22 06:25:31;;;;;;;8.88;6.05;;;12.40;99.90;;;;;;5050774;28;20459;-78
2023/10/22 06:27:57;;;;;;;9.15;6.60;;;12.40;99.90;;;;;;5050905;28;20017;-78
2023/10/22 06:30:24;;;;;;;8.75;6.43;;;12.40;99.90;;;;;;5050334;28;20032;-84
2023/10/22 06:32:51;;;;;;;5.70;5.10;;;12.50;99.90;;;;;;5050058;28;20021;-79
2023/10/22 06:35:19;;;;;;;6.88;5.10;;;12.50;99.90;;;;;;5050821;28;20470;-85
2023/10/22 06:37:47;;;;;;;6.40;5.35;;;12.50;99.90;;;;;;5052047;28;20051;-79
2023/10/22 06:40:13;;;;;;;6.47;5.50;;;12.50;99.90;;;;;;5048201;28;20040;-79
2023/10/22 06:42:40;;;;;;;6.43;5.78;;;12.50;99.90;;;;;;5043973;28;20435;-79
2023/10/22 06:45:07;;;;;;;5.43;4.93;;;12.50;99.90;;;;;;5052179;28;20025;-84
2023/10/22 06:47:36;;;;;;;6.75;4.28;;;12.50;99.90;;;;;;5047838;28;20098;-84
2023/10/22 06:50:04;;;;;;;5.68;4.68;;;12.50;99.90;;;;;;5041263;28;20067;-84
2023/10/22 06:52:29;;;;;;;6.07;5.30;;;12.50;99.90;;;;;;5053607;28;20028;-79
2023/10/22 06:54:55;;;;;;;6.38;5.78;;;12.60;99.90;;;;;;5060808;28;20021;-84
2023/10/22 06:57:21;;;;;;;8.23;6.03;;;12.50;99.90;;;;;;5041076;28;20021;-85
2023/10/22 06:59:52;;;;;;;6.28;5.68;;;12.60;99.90;;;;;;5045790;28;20017;-85
2023/10/22 07:02:18;;;;;;;5.65;4.72;;;12.60;99.90;;;;;;5044513;28;20148;-84
2023/10/22 07:04:44;;;;;;;3.55;3.15;;;12.60;99.90;;;;;;5055584;28;20017;-79
2023/10/22 07:07:10;;;;;;;4.25;2.72;;;12.60;99.90;;;;;;5053839;28;20078;-78
2023/10/22 07:09:36;;;;;;;2.75;2.55;;;12.50;99.90;;;;;;5055664;28;20037;-84
2023/10/22 07:12:03;;;;;;;3.35;3.15;;;12.60;99.90;;;;;;5055044;28;20028;-83
2023/10/22 07:14:29;;;;;;;4.90;2.85;;;12.60;99.90;;;;;;5055311;28;20032;-83
2023/10/22 07:16:55;;;;;;;3.42;3.08;;;12.60;99.90;;;;;;5054819;28;20013;-78
2023/10/22 07:19:20;;;;;;;3.78;3.47;;;12.70;99.90;;;;;;5053455;28;20103;-78
2023/10/22 07:21:46;;;;;;;3.60;3.30;;;12.70;99.90;;;;;;5055042;28;20493;-83
2023/10/22 07:24:12;;;;;;;4.20;3.80;;;12.80;99.90;;;;;;5053510;28;20390;-83
2023/10/22 07:26:38;;;;;;;4.43;4.03;;;12.70;99.90;;;;;;5055189;28;20485;-79
2023/10/22 07:29:04;;;;;;;8.00;6.38;;;12.80;99.90;;;;;;5053574;28;20107;-83
2023/10/22 07:31:29;;;;;;;9.80;6.25;;;12.80;99.90;;;;;;5044142;28;20472;-79
2023/10/22 07:33:55;;;;;;;10.95;8.18;;;12.80;99.90;;;;;;5054960;28;20032;-78
2023/10/22 07:36:21;;;;;;;5.28;4.70;;;12.80;99.90;;;;;;5054854;28;20021;-78
2023/10/22 07:38:51;;;;;;;6.95;4.38;;;12.90;99.90;;;;;;5053445;28;20027;-83
2023/10/22 07:41:18;;;;;;;5.00;3.70;;;12.90;99.90;;;;;;5053673;28;20024;-83
2023/10/22 07:43:43;;;;;;;5.18;4.40;;;12.80;99.90;;;;;;5054983;28;20017;-83
2023/10/22 07:46:10;;;;;;;4.93;4.45;;;12.80;99.90;;;;;;5054749;28;20501;-84
2023/10/22 07:48:37;;;;;;;5.38;4.85;;;12.80;99.90;;;;;;5053491;28;20044;-78
2023/10/22 07:51:15;;;;;;;6.35;4.55;;;12.80;99.90;;;;;;5053261;28;20041;-78
2023/10/22 07:53:42;;;;;;;4.93;4.43;;;12.80;99.90;;;;;;5054691;28;20047;-79
2023/10/22 07:56:08;;;;;;;5.10;4.60;;;12.80;99.90;;;;;;5047755;28;20032;-78
2023/10/22 07:58:36;;;;;;;6.30;4.95;;;12.80;99.90;;;;;;5054455;28;20466;-78
2023/10/22 08:01:03;;;;;;;5.05;4.47;;;12.80;99.90;;;;;;5048307;28;20425;-83
2023/10/22 08:03:29;;;;;;;6.45;5.70;;;12.80;99.90;;;;;;5052999;28;20039;-83
2023/10/22 08:05:55;;;;;;;8.23;6.15;;;12.80;99.90;;;;;;5052937;28;20009;-78
2023/10/22 08:08:22;;;;;;;7.40;5.75;;;12.80;99.90;;;;;;5052284;28;20032;-78
2023/10/22 08:10:47;;;;;;;56.30;34.45;;;12.90;99.90;;;;;;5054527;28;20055;-84
2023/10/22 08:13:13;;;;;;;51.85;29.40;;;12.90;99.90;;;;;;5052378;28;20491;-83
2023/10/22 08:15:39;;;;;;;62.25;35.63;;;12.90;99.90;;;;;;5053047;28;20021;-78
2023/10/22 08:18:04;;;;;;;53.78;31.27;;;12.90;99.90;;;;;;5054061;28;20060;-83
2023/10/22 08:20:32;;;;;;;14.48;10.15;;;13.00;99.90;;;;;;5052716;28;20501;-83
2023/10/22 08:22:58;;;;;;;8.30;6.10;;;13.00;99.90;;;;;;5046156;28;20068;-78
2023/10/22 08:25:24;;;;;;;10.00;8.80;;;13.10;99.90;;;;;;5049409;28;20048;-84
2023/10/22 08:27:49;;;;;;;11.02;9.85;;;13.10;99.90;;;;;;5053742;28;20044;-78
2023/10/22 08:30:15;;;;;;;7.97;6.45;;;13.10;99.90;;;;;;5052775;28;20383;-78
2023/10/22 08:32:46;;;;;;;6.30;5.70;;;13.10;99.90;;;;;;5047309;28;20016;-83
2023/10/22 08:35:12;;;;;;;24.92;17.45;;;13.20;99.90;;;;;;5036328;28;20024;-83
2023/10/22 08:37:38;;;;;;;8.65;7.15;;;13.20;99.90;;;;;;5053690;28;20035;-84
2023/10/22 08:40:08;;;;;;;6.78;5.13;;;13.30;99.90;;;;;;5037632;28;20108;-83
2023/10/22 08:42:35;;;;;;;18.63;14.85;;;13.30;99.90;;;;;;5048756;28;20036;-83
2023/10/22 08:45:03;;;;;;;30.23;24.00;;;13.30;99.90;;;;;;5052440;28;20045;-83
2023/10/22 08:47:29;;;;;;;12.77;10.00;;;13.40;99.90;;;;;;5052121;28;20103;-78
2023/10/22 08:49:55;;;;;;;20.75;17.60;;;13.40;99.90;;;;;;5051917;28;20044;-84
2023/10/22 08:52:22;;;;;;;34.22;29.10;;;13.40;99.90;;;;;;5053470;28;20061;-79
2023/10/22 08:54:47;;;;;;;24.98;17.63;;;13.50;99.90;;;;;;5052085;28;20025;-78
2023/10/22 08:57:14;;;;;;;17.05;13.52;;;13.50;99.90;;;;;;5052168;28;20025;-79
2023/10/22 08:59:40;;;;;;;23.80;17.15;;;13.60;99.90;;;;;;5052262;28;20025;-78
2023/10/22 09:02:11;;;;;;;27.33;17.35;;;13.60;99.90;;;;;;5052209;28;20021;-83
2023/10/22 09:04:40;;;;;;;25.77;15.75;;;13.70;99.90;;;;;;5052014;28;20025;-83
2023/10/22 09:07:05;;;;;;;18.25;12.43;;;13.80;99.90;;;;;;5051651;28;20013;-84
2023/10/22 09:09:36;;;;;;;23.55;15.48;;;13.90;99.90;;;;;;5053024;28;20478;-78
2023/10/22 09:12:03;;;;;;;33.70;19.60;;;13.90;99.90;;;;;;5051027;28;20049;-79
2023/10/22 09:14:30;;;;;;;47.20;21.50;;;14.00;99.90;;;;;;5051955;28;20048;-79
2023/10/22 09:16:56;;;;;;;37.30;25.00;;;14.10;99.90;;;;;;5052833;28;20021;-79
2023/10/22 09:19:39;;;;;;;17.58;14.10;;;14.20;99.90;;;;;;5051613;28;20017;-78
2023/10/22 09:22:05;;;;;;;36.05;23.33;;;14.20;99.90;;;;;;5050449;28;20035;-78
2023/10/22 09:24:47;;;;;;;30.98;16.48;;;14.30;99.90;;;;;;5052933;28;20025;-78
2023/10/22 09:27:26;;;;;;;37.03;22.30;;;14.30;99.90;;;;;;5050637;28;20036;-83
2023/10/22 09:29:53;;;;;;;24.23;16.63;;;14.30;99.90;;;;;;5045934;28;20037;-84
2023/10/22 09:32:19;;;;;;;27.73;17.88;;;14.30;99.90;;;;;;5051377;28;20025;-83
2023/10/22 09:34:45;;;;;;;47.03;26.08;;;14.30;99.90;;;;;;5052120;28;20391;-84
2023/10/22 09:37:11;;;;;;;37.80;19.15;;;14.30;99.90;;;;;;5047213;28;20040;-83
2023/10/22 09:39:45;;;;;;;34.45;18.13;;;14.40;99.90;;;;;;5051573;28;20021;-83
2023/10/22 09:42:13;;;;;;;31.58;19.13;;;14.40;99.90;;;;;;5051166;28;20039;-83
2023/10/22 09:44:40;;;;;;;24.38;14.80;;;14.30;99.90;;;;;;5049864;28;20025;-77
2023/10/22 09:47:07;;;;;;;43.58;22.50;;;14.30;99.90;;;;;;5047734;28;20063;-77
2023/10/22 09:49:35;;;;;;;34.53;20.20;;;14.30;99.90;;;;;;5049180;28;20452;-83
2023/10/22 09:52:08;;;;;;;41.90;23.77;;;14.30;99.90;;;;;;5049419;28;20014;-83
2023/10/22 09:54:41;;;;;;;49.47;31.52;;;14.30;99.90;;;;;;5061002;28;20112;-83
2023/10/22 09:57:14;;;;;;;48.67;27.05;;;14.30;99.90;;;;;;5050491;28;20025;-83
2023/10/22 09:59:44;;;;;;;45.13;23.73;;;14.30;99.90;;;;;;5051640;28;20040;-83
2023/10/22 10:02:15;;;;;;;58.88;32.15;;;14.30;99.90;;;;;;5056602;28;20018;-83
2023/10/22 10:04:45;;;;;;;56.13;30.67;;;14.40;99.90;;;;;;5052106;28;20402;-83
2023/10/22 10:07:11;;;;;;;56.58;27.83;;;14.50;99.90;;;;;;5051143;28;20091;-78
2023/10/22 10:09:38;;;;;;;39.78;22.75;;;14.50;99.90;;;;;;5050895;28;20576;-83
2023/10/22 10:12:06;;;;;;;46.55;29.30;;;14.50;99.90;;;;;;5052309;28;20021;-83
2023/10/22 10:14:44;;;;;;;71.43;36.10;;;14.60;99.90;;;;;;5042663;28;20029;-83
2023/10/22 10:17:13;;;;;;;38.83;21.08;;;14.60;99.90;;;;;;5048350;28;20084;-83
2023/10/22 10:19:39;;;;;;;56.58;28.73;;;14.70;99.90;;;;;;5051206;28;20025;-83
2023/10/22 10:22:05;;;;;;;43.47;26.00;;;14.70;99.90;;;;;;5056183;28;20044;-83
2023/10/22 10:24:32;;;;;;;29.63;17.02;;;14.70;99.90;;;;;;5054103;28;20055;-83
2023/10/22 10:26:58;;;;;;;29.70;13.23;;;14.70;99.90;;;;;;5054985;28;20037;-83
2023/10/22 10:29:29;;;;;;;40.67;22.52;;;14.70;99.90;;;;;;5053568;28;20578;-77
2023/10/22 10:32:18;;;;;;;50.80;30.08;;;14.60;99.90;;;;;;5051805;28;20024;-83
2023/10/22 10:34:47;;;;;;;34.28;14.75;;;14.60;99.90;;;;;;5047715;28;20043;-78
2023/10/22 10:37:20;;;;;;;33.10;14.95;;;14.60;99.90;;;;;;5045818;28;20447;-78
2023/10/22 10:39:48;;;;;;;27.38;16.92;;;14.60;99.90;;;;;;5053696;28;20025;-78
2023/10/22 10:42:29;;;;;;;47.25;24.10;;;14.50;99.90;;;;;;5054723;28;20027;-83
2023/10/22 10:44:55;;;;;;;24.58;12.32;;;14.40;99.90;;;;;;5052460;28;20108;-78
2023/10/22 10:47:20;;;;;;;19.70;11.38;;;14.40;99.90;;;;;;5055376;28;20124;-83
2023/10/22 10:50:05;;;;;;;13.43;10.63;;;14.30;99.90;;;;;;5055464;28;20115;-83
2023/10/22 10:52:34;;;;;;;25.48;12.15;;;14.20;99.90;;;;;;5045911;28;20431;-83
2023/10/22 10:55:15;;;;;;;17.02;9.35;;;14.10;99.90;;;;;;5054144;28;20048;-83
2023/10/22 10:57:53;;;;;;;16.13;11.25;;;14.10;99.90;;;;;;5054227;28;20040;-77
2023/10/22 11:00:19;;;;;;;30.40;21.42;;;14.10;99.90;;;;;;5054419;28;20029;-83
2023/10/22 11:02:53;;;;;;;33.75;17.05;;;14.10;99.90;;;;;;5054222;28;20025;-83
2023/10/22 11:05:39;;;;;;;22.33;11.52;;;14.10;99.90;;;;;;5051101;28;20013;-84
2023/10/22 11:08:18;;;;;;;20.67;13.75;;;14.00;99.90;;;;;;5056686;28;20013;-84
2023/10/22 11:10:47;;;;;;;23.35;12.68;;;14.10;99.90;;;;;;5042636;28;20483;-84
2023/10/22 11:13:14;;;;;;;14.45;9.98;;;14.10;99.90;;;;;;5051860;28;20029;-84
2023/10/22 11:15:40;;;;;;;23.42;16.85;;;14.10;99.90;;;;;;5049365;28;20075;-84
2023/10/22 11:18:08;;;;;;;22.30;16.90;;;14.10;99.90;;;;;;5045342;28;20017;-84
2023/10/22 11:20:34;;;;;;;30.08;15.02;;;14.20;99.90;;;;;;5049863;28;20048;-84
2023/10/22 11:23:00;;;;;;;22.58;13.45;;;14.20;99.90;;;;;;5053758;28;20098;-84
2023/10/22 11:25:27;;;;;;;13.73;9.63;;;14.20;99.90;;;;;;5053689;28;20398;-84
2023/10/22 11:27:54;;;;;;;15.30;9.73;;;14.20;99.90;;;;;;5054878;28;20101;-79
2023/10/22 11:30:40;;;;;;;14.63;9.90;;;14.30;99.90;;;;;;5048206;28;20029;-84
2023/10/22 11:33:25;;;;;;;13.93;8.65;;;14.20;99.90;;;;;;5048553;28;20060;-84
2023/10/22 11:35:53;;;;;;;9.80;7.93;;;14.30;99.90;;;;;;5052576;28;20017;-84
2023/10/22 11:38:22;;;;;;;12.00;8.15;;;14.30;99.90;;;;;;5057540;28;20092;-84
2023/10/22 11:40:53;;;;;;;14.27;10.38;;;14.20;99.90;;;;;;5051895;28;20021;-83
2023/10/22 11:43:19;;;;;;;18.77;11.55;;;14.20;99.90;;;;;;5053462;28;20032;-84
2023/10/22 11:45:53;;;;;;;19.80;11.80;;;14.20;99.90;;;;;;5054574;28;20017;-85
2023/10/22 11:48:21;;;;;;;12.65;10.10;;;14.20;99.90;;;;;;5062056;28;20049;-84
2023/10/22 11:50:51;;;;;;;12.27;9.05;;;14.10;99.90;;;;;;5054171;28;20363;-84
2023/10/22 11:53:17;;;;;;;12.52;9.15;;;14.20;99.90;;;;;;5053127;28;20421;-84
2023/10/22 11:55:45;;;;;;;10.05;8.63;;;14.20;99.90;;;;;;5053186;28;20063;-83
2023/10/22 11:58:19;;;;;;;14.77;10.25;;;14.20;99.90;;;;;;5054157;28;20029;-83
2023/10/22 12:00:48;;;;;;;10.70;8.65;;;14.30;99.90;;;;;;5054252;28;20049;-84
2023/10/22 12:03:14;;;;;;;14.95;11.10;;;14.30;99.90;;;;;;5053020;28;20134;-83
2023/10/22 12:05:40;;;;;;;13.68;9.38;;;14.30;99.90;;;;;;5052840;28;20021;-84
2023/10/22 12:08:06;;;;;;;14.85;10.23;;;14.30;99.90;;;;;;5052716;28;20025;-84
2023/10/22 12:10:32;;;;;;;14.60;10.43;;;14.20;99.90;;;;;;5064163;28;20021;-84
2023/10/22 12:12:57;;;;;;;10.43;8.10;;;14.20;99.90;;;;;;5052835;28;20138;-83
2023/10/22 12:15:23;;;;;;;10.45;7.70;;;14.20;99.90;;;;;;5064354;28;20041;-84
2023/10/22 12:17:49;;;;;;;10.70;7.55;;;14.10;99.90;;;;;;5054159;28;20020;-83
2023/10/22 12:20:14;;;;;;;10.27;6.97;;;14.10;99.90;;;;;;5053557;28;20557;-83
2023/10/22 12:22:40;;;;;;;9.40;7.60;;;14.10;99.90;;;;;;5052502;28;20410;-83
2023/10/22 12:25:06;;;;;;;11.38;8.88;;;14.00;99.90;;;;;;5069064;28;20017;-84
2023/10/22 12:27:32;;;;;;;9.32;7.80;;;13.90;99.90;;;;;;5053851;28;20021;-83
2023/10/22 12:29:58;;;;;;;11.20;8.25;;;13.80;99.90;;;;;;5052592;28;20045;-84
2023/10/22 12:32:24;;;;;;;10.10;8.18;;;13.80;99.90;;;;;;5053677;28;20387;-84
2023/10/22 12:34:50;;;;;;;11.73;7.88;;;13.70;99.90;;;;;;5042654;28;20029;-84
2023/10/22 12:37:15;;;;;;;8.15;6.90;;;13.70;99.90;;;;;;5052864;28;20044;-83
2023/10/22 12:39:42;;;;;;;8.38;7.25;;;13.60;99.90;;;;;;5053426;28;20414;-83
2023/10/22 12:42:08;;;;;;;8.07;7.25;;;13.50;99.90;;;;;;5049485;28;20017;-83